createdAt,value
2019-04-21T00:02:27.657Z,1.22
2019-04-21T00:05:12.394Z,0.90
2019-04-21T00:07:36.540Z,1.35
2019-04-21T00:10:05.796Z,0.45
2019-04-21T00:12:35.579Z,0.62
2019-04-21T00:14:57.863Z,0.30
2019-04-21T00:17:19.317Z,0.33
2019-04-21T00:19:49.659Z,1.42
2019-04-21T00:22:32.427Z,0.10
2019-04-21T00:25:01.066Z,1.07
2019-04-21T00:27:33.463Z,1.90
2019-04-21T00:30:04.300Z,1.95
2019-04-21T00:32:29.290Z,1.05
2019-04-21T00:34:51.004Z,0.72
2019-04-21T00:37:24.119Z,0.53
2019-04-21T00:40:04.320Z,1.75
2019-04-21T00:42:30.257Z,1.12
2019-04-21T00:47:31.634Z,0.37
2019-04-21T00:50:00.820Z,0.33
2019-04-21T00:52:46.051Z,0.10
2019-04-21T00:55:14.025Z,0.25
2019-04-21T01:00:14.107Z,0.00
2019-04-21T01:02:46.883Z,1.15
2019-04-21T01:05:15.131Z,0.10
2019-04-21T01:07:42.441Z,0.55
2019-04-21T01:10:03.799Z,0.78
2019-04-21T01:12:37.640Z,0.10
2019-04-21T01:15:12.250Z,0.80
2019-04-21T01:17:35.587Z,1.35
2019-04-21T01:19:57.495Z,0.23
2019-04-21T01:22:11.238Z,0.37
2019-04-21T01:24:43.361Z,1.30
2019-04-21T01:27:14.582Z,2.20
2019-04-21T01:29:53.380Z,0.10
2019-04-21T01:32:25.402Z,1.02
2019-04-21T01:34:53.022Z,0.75
2019-04-21T01:37:21.022Z,1.00
2019-04-21T01:39:54.615Z,1.15
2019-04-21T01:42:21.372Z,0.05
2019-04-21T01:45:09.375Z,0.57
2019-04-21T01:47:36.004Z,0.30
2019-04-21T01:49:56.771Z,2.62
2019-04-21T01:52:44.193Z,0.03
2019-04-21T01:55:14.042Z,1.85
2019-04-21T01:57:42.584Z,1.47
2019-04-21T02:00:06.319Z,0.30
2019-04-21T02:02:44.864Z,0.55
2019-04-21T02:05:23.940Z,0.30
2019-04-21T02:07:40.564Z,0.00
2019-04-21T02:10:11.123Z,0.20
2019-04-21T02:12:40.970Z,1.17
2019-04-21T02:15:11.439Z,0.45
2019-04-21T02:17:35.634Z,0.90
2019-04-21T02:20:02.802Z,0.50
2019-04-21T02:22:54.926Z,1.25
2019-04-21T02:25:12.294Z,0.10
2019-04-21T02:27:41.190Z,1.02
2019-04-21T02:30:10.185Z,0.35
2019-04-21T02:32:43.569Z,0.47
2019-04-21T02:37:44.581Z,0.17
2019-04-21T02:40:12.869Z,1.30
2019-04-21T02:42:46.340Z,1.02
2019-04-21T02:45:10.640Z,0.95
2019-04-21T02:47:48.371Z,0.20
2019-04-21T02:50:13.453Z,0.05
2019-04-21T02:55:03.670Z,0.00
2019-04-21T02:57:39.681Z,0.30
2019-04-21T03:00:06.942Z,0.13
2019-04-21T03:02:40.755Z,0.88
2019-04-21T03:10:22.201Z,0.30
2019-04-21T03:12:53.043Z,0.85
2019-04-21T03:23:02.079Z,1.15
2019-04-21T03:25:27.790Z,1.10
2019-04-21T03:33:09.504Z,0.03
2019-04-21T03:37:47.025Z,0.57
2019-04-21T03:39:59.325Z,0.30
2019-04-21T03:42:36.838Z,0.00
2019-04-21T03:52:29.695Z,0.25
2019-04-21T04:00:42.464Z,0.50
2019-04-21T04:03:35.278Z,0.33
2019-04-21T04:05:57.539Z,0.15
2019-04-21T04:11:15.230Z,0.10
2019-04-21T04:13:44.212Z,0.10
2019-04-21T04:18:39.275Z,1.47
2019-04-21T04:21:05.799Z,0.45
2019-04-21T04:23:37.481Z,0.25
2019-04-21T04:28:36.276Z,0.20
2019-04-21T04:30:56.243Z,1.25
2019-04-21T04:33:27.965Z,0.00
2019-04-21T04:38:34.098Z,0.00
2019-04-21T04:41:12.056Z,0.00
2019-04-21T04:45:58.825Z,0.00
2019-04-21T04:48:47.502Z,0.40
2019-04-21T04:53:32.296Z,0.00
2019-04-21T04:58:29.726Z,0.20
2019-04-21T05:01:06.275Z,0.35
2019-04-21T05:03:26.329Z,0.03
2019-04-21T05:06:30.631Z,0.00
2019-04-21T05:11:31.819Z,0.23
2019-04-21T05:13:43.462Z,0.00
2019-04-21T05:16:22.100Z,1.72
2019-04-21T05:18:43.878Z,0.25
2019-04-21T05:21:14.313Z,0.35
2019-04-21T05:23:31.639Z,1.52
2019-04-21T05:25:50.802Z,0.40
2019-04-21T05:28:21.886Z,0.00
2019-04-21T05:31:19.432Z,0.17
2019-04-21T05:33:47.557Z,0.30
2019-04-21T05:36:34.185Z,0.08
2019-04-21T05:39:02.515Z,0.00
2019-04-21T05:41:29.136Z,0.03
2019-04-21T05:44:03.848Z,0.00
2019-04-21T05:46:39.780Z,0.00
2019-04-21T05:49:05.003Z,0.00
2019-04-21T05:51:30.529Z,1.27
2019-04-21T05:54:17.517Z,0.33
2019-04-21T05:56:35.428Z,0.00
2019-04-21T05:59:03.392Z,0.00
2019-04-21T06:01:39.349Z,0.00
2019-04-21T06:04:03.608Z,0.30
2019-04-21T06:06:39.197Z,0.00
2019-04-21T06:08:59.487Z,0.00
2019-04-21T06:11:30.619Z,0.05
2019-04-21T06:16:30.277Z,0.28
2019-04-21T06:19:04.936Z,0.25
2019-04-21T06:21:21.958Z,0.50
2019-04-21T06:23:51.426Z,0.00
2019-04-21T06:26:44.875Z,0.23
2019-04-21T06:31:26.955Z,0.72
2019-04-21T06:33:52.265Z,0.53
2019-04-21T06:39:04.743Z,0.30
2019-04-21T06:46:26.196Z,0.60
2019-04-21T06:48:55.524Z,0.10
2019-04-21T06:51:24.050Z,0.35
2019-04-21T06:53:57.735Z,0.47
2019-04-21T06:56:27.156Z,0.40
2019-04-21T06:58:42.885Z,0.03
2019-04-21T07:01:21.614Z,0.68
2019-04-21T07:03:48.618Z,0.00
2019-04-21T07:06:12.653Z,0.23
2019-04-21T07:08:55.095Z,0.30
2019-04-21T07:11:10.951Z,0.23
2019-04-21T07:13:36.751Z,0.23
2019-04-21T07:16:12.047Z,0.15
2019-04-21T07:18:41.516Z,0.37
2019-04-21T07:21:06.098Z,0.55
2019-04-21T07:23:42.029Z,0.28
2019-04-21T07:26:02.991Z,0.80
2019-04-21T07:28:46.039Z,0.20
2019-04-21T07:31:08.010Z,0.00
2019-04-21T07:36:09.011Z,1.45
2019-04-21T07:38:32.015Z,0.13
2019-04-21T07:40:54.275Z,0.10
2019-04-21T07:43:20.536Z,0.17
2019-04-21T07:45:51.587Z,1.00
2019-04-21T07:48:24.932Z,0.35
2019-04-21T07:51:18.879Z,0.28
2019-04-21T07:53:55.716Z,0.00
2019-04-21T07:56:06.257Z,0.00
2019-04-21T07:58:56.309Z,0.00
2019-04-21T08:01:20.166Z,0.00
2019-04-21T08:03:46.757Z,0.28
2019-04-21T08:06:19.372Z,0.00
2019-04-21T08:08:40.986Z,0.00
2019-04-21T08:11:09.625Z,0.05
2019-04-21T08:13:39.476Z,0.50
2019-04-21T08:16:10.601Z,0.40
2019-04-21T08:18:40.617Z,0.20
2019-04-21T08:21:05.756Z,0.23
2019-04-21T08:23:31.744Z,0.80
2019-04-21T08:26:06.109Z,0.30
2019-04-21T08:28:35.435Z,0.23
2019-04-21T08:31:01.789Z,0.20
2019-04-21T08:33:38.249Z,1.03
2019-04-21T08:38:35.876Z,0.00
2019-04-21T08:41:05.121Z,0.45
2019-04-21T08:43:36.970Z,0.00
2019-04-21T08:46:03.039Z,0.65
2019-04-21T08:48:28.513Z,0.10
2019-04-21T08:51:06.269Z,0.00
2019-04-21T08:53:28.975Z,0.20
2019-04-21T08:56:04.433Z,0.10
2019-04-21T08:58:34.341Z,0.03
2019-04-21T09:01:01.090Z,0.08
2019-04-21T09:03:28.449Z,0.65
2019-04-21T09:05:59.673Z,0.10
2019-04-21T09:08:31.677Z,0.28
2019-04-21T09:10:55.447Z,0.00
2019-04-21T09:13:25.119Z,0.00
2019-04-21T09:15:53.615Z,0.10
2019-04-21T09:18:21.770Z,0.40
2019-04-21T09:20:57.078Z,0.00
2019-04-21T09:23:19.875Z,0.10
2019-04-21T09:25:53.135Z,1.55
2019-04-21T09:28:18.340Z,0.40
2019-04-21T09:30:39.515Z,0.00
2019-04-21T09:33:00.533Z,0.10
2019-04-21T09:35:29.169Z,0.10
2019-04-21T09:38:03.979Z,0.25
2019-04-21T09:40:30.125Z,0.33
2019-04-21T09:43:01.035Z,0.47
2019-04-21T09:45:24.457Z,0.25
2019-04-21T09:48:00.854Z,0.00
2019-04-21T09:50:22.091Z,1.90
2019-04-21T09:52:57.467Z,0.25
2019-04-21T09:55:22.559Z,0.10
2019-04-21T09:57:53.541Z,0.10
2019-04-21T10:00:21.152Z,1.35
2019-04-21T10:02:54.647Z,5.62
2019-04-21T10:05:14.561Z,2.08
2019-04-21T10:07:42.894Z,8.98
2019-04-21T10:10:10.711Z,3.08
2019-04-21T10:12:37.489Z,8.60
2019-04-21T10:15:06.262Z,3.62
2019-04-21T10:17:39.606Z,2.35
2019-04-21T10:20:09.477Z,2.15
2019-04-21T10:22:37.248Z,0.90
2019-04-21T10:25:08.145Z,0.53
2019-04-21T10:27:36.850Z,0.37
2019-04-21T10:30:07.945Z,0.30
2019-04-21T10:32:36.329Z,0.40
2019-04-21T10:35:05.507Z,0.75
2019-04-21T10:37:45.436Z,10.20
2019-04-21T10:40:05.377Z,16.85
2019-04-21T10:42:33.203Z,13.45
2019-04-21T10:45:01.080Z,1.65
2019-04-21T10:47:29.358Z,0.85
2019-04-21T10:49:56.414Z,0.75
2019-04-21T10:52:27.877Z,0.60
2019-04-21T10:55:11.171Z,0.53
2019-04-21T10:57:26.354Z,0.35
2019-04-21T10:59:55.959Z,0.10
2019-04-21T11:02:26.912Z,0.10
2019-04-21T11:04:54.518Z,0.75
2019-04-21T11:07:38.981Z,0.30
2019-04-21T11:10:04.650Z,0.30
2019-04-21T11:12:31.500Z,0.95
2019-04-21T11:14:58.907Z,0.15
2019-04-21T11:17:25.970Z,0.40
2019-04-21T11:19:52.895Z,0.65
2019-04-21T11:22:20.887Z,0.50
2019-04-21T11:24:48.986Z,0.62
2019-04-21T11:27:16.997Z,0.45
2019-04-21T11:29:44.353Z,1.07
2019-04-21T11:32:12.637Z,0.35
2019-04-21T11:34:40.740Z,0.00
2019-04-21T11:37:10.221Z,0.10
2019-04-21T11:39:46.276Z,1.05
2019-04-21T11:42:07.925Z,0.00
2019-04-21T11:44:35.333Z,0.20
2019-04-21T11:47:04.694Z,0.30
2019-04-21T11:49:32.581Z,0.00
2019-04-21T11:52:00.767Z,0.37
2019-04-21T11:54:28.938Z,0.10
2019-04-21T11:56:56.932Z,0.10
2019-04-21T11:59:24.308Z,0.10
2019-04-21T12:01:51.847Z,0.55
2019-04-21T12:04:18.681Z,0.23
2019-04-21T12:06:47.612Z,0.00
2019-04-21T12:09:17.066Z,0.07
2019-04-21T12:11:45.334Z,0.17
2019-04-21T12:14:14.148Z,0.20
2019-04-21T12:16:41.372Z,0.00
2019-04-21T12:19:09.166Z,0.00
2019-04-21T12:21:49.158Z,0.40
2019-04-21T12:24:06.928Z,0.25
2019-04-21T12:26:35.940Z,0.50
2019-04-21T12:29:03.914Z,0.47
2019-04-21T12:31:39.275Z,0.25
2019-04-21T12:34:09.858Z,0.10
2019-04-21T12:36:38.039Z,0.15
2019-04-21T12:39:08.430Z,0.10
2019-04-21T12:41:36.206Z,0.03
2019-04-21T12:44:04.625Z,0.10
2019-04-21T12:46:31.885Z,0.20
2019-04-21T12:48:59.958Z,0.25
2019-04-21T12:51:33.725Z,0.03
2019-04-21T12:54:01.621Z,0.20
2019-04-21T12:56:29.472Z,0.50
2019-04-21T12:58:57.680Z,0.15
2019-04-21T13:01:25.545Z,0.13
2019-04-21T13:03:52.562Z,0.30
2019-04-21T13:06:19.732Z,0.23
2019-04-21T13:08:56.857Z,0.00
2019-04-21T13:11:17.125Z,0.62
2019-04-21T13:13:44.176Z,0.47
2019-04-21T13:16:11.765Z,0.00
2019-04-21T13:18:39.583Z,0.55
2019-04-21T13:21:07.265Z,0.10
2019-04-21T13:23:35.013Z,0.00
2019-04-21T13:26:04.358Z,0.10
2019-04-21T13:28:32.436Z,0.30
2019-04-21T13:31:00.197Z,0.30
2019-04-21T13:33:27.512Z,0.00
2019-04-21T13:35:55.149Z,0.00
2019-04-21T13:38:30.139Z,0.00
2019-04-21T13:41:21.458Z,0.80
2019-04-21T13:43:39.203Z,0.00
2019-04-21T13:46:07.946Z,0.00
2019-04-21T13:48:36.761Z,0.00
2019-04-21T13:51:07.152Z,0.05
2019-04-21T13:53:35.909Z,0.10
2019-04-21T13:56:04.603Z,0.00
2019-04-21T13:58:32.709Z,1.57
2019-04-21T14:00:59.997Z,0.95
2019-04-21T14:03:27.429Z,1.02
2019-04-21T14:05:56.075Z,0.08
2019-04-21T14:08:23.365Z,0.30
2019-04-21T14:10:51.522Z,0.10
2019-04-21T14:13:20.355Z,0.65
2019-04-21T14:15:48.811Z,0.40
2019-04-21T14:18:16.381Z,0.00
2019-04-21T14:20:44.976Z,0.10
2019-04-21T14:23:21.085Z,0.15
2019-04-21T14:25:41.690Z,2.40
2019-04-21T14:28:10.195Z,4.72
2019-04-21T14:30:38.514Z,3.10
2019-04-21T14:33:05.946Z,3.87
2019-04-21T14:35:34.846Z,1.07
2019-04-21T14:38:02.715Z,0.20
2019-04-21T14:40:32.917Z,0.10
2019-04-21T14:43:00.199Z,0.40
2019-04-21T14:45:41.163Z,0.80
2019-04-21T14:48:23.228Z,0.53
2019-04-21T14:51:04.325Z,1.60
2019-04-21T14:53:34.092Z,1.07
2019-04-21T14:56:01.473Z,1.17
2019-04-21T14:58:28.548Z,4.08
2019-04-21T15:01:02.047Z,3.75
2019-04-21T15:03:29.981Z,0.55
2019-04-21T15:05:57.771Z,4.53
2019-04-21T15:08:26.931Z,12.85
2019-04-21T15:10:54.938Z,10.85
2019-04-21T15:13:23.615Z,7.92
2019-04-21T15:15:52.188Z,2.72
2019-04-21T15:18:20.947Z,5.10
2019-04-21T15:20:50.485Z,10.30
2019-04-21T15:23:17.995Z,2.47
2019-04-21T15:25:46.026Z,7.85
2019-04-21T15:28:13.830Z,1.32
2019-04-21T15:30:42.422Z,1.72
2019-04-21T15:33:11.151Z,5.55
2019-04-21T15:35:40.612Z,1.55
2019-04-21T15:38:09.647Z,0.78
2019-04-21T15:40:45.691Z,1.32
2019-04-21T15:43:06.468Z,2.65
2019-04-21T15:45:34.945Z,0.08
2019-04-21T15:48:02.542Z,0.98
2019-04-21T15:50:30.167Z,1.52
2019-04-21T15:53:01.391Z,0.57
2019-04-21T15:55:37.040Z,0.45
2019-04-21T15:58:06.854Z,1.07
2019-04-21T16:00:36.454Z,0.98
2019-04-21T16:03:04.609Z,18.50
2019-04-21T16:05:32.964Z,18.02
2019-04-21T16:08:00.331Z,6.37
2019-04-21T16:10:36.933Z,7.55
2019-04-21T16:12:56.167Z,5.78
2019-04-21T16:15:23.010Z,10.82
2019-04-21T16:17:51.066Z,3.60
2019-04-21T16:20:19.787Z,2.47
2019-04-21T16:22:46.576Z,0.88
2019-04-21T16:25:14.961Z,1.62
2019-04-21T16:27:43.415Z,10.43
2019-04-21T16:30:12.141Z,5.72
2019-04-21T16:32:39.041Z,4.20
2019-04-21T16:35:10.645Z,11.38
2019-04-21T16:37:37.334Z,25.43
2019-04-21T16:40:07.331Z,11.15
2019-04-21T16:42:36.166Z,6.08
2019-04-21T16:45:05.602Z,4.17
2019-04-21T16:47:32.617Z,0.78
2019-04-21T16:49:59.713Z,2.92
2019-04-21T16:52:28.390Z,4.75
2019-04-21T16:54:58.298Z,1.80
2019-04-21T16:57:28.411Z,3.33
2019-04-21T16:59:57.119Z,1.60
2019-04-21T17:02:24.825Z,1.42
2019-04-21T17:04:52.154Z,0.00
2019-04-21T17:07:19.988Z,0.00
2019-04-21T17:09:48.614Z,4.10
2019-04-21T17:12:16.574Z,0.30
2019-04-21T17:14:57.152Z,0.98
2019-04-21T17:17:37.233Z,0.75
2019-04-21T17:19:47.030Z,6.10
2019-04-21T17:22:11.640Z,3.65
2019-04-21T17:24:40.213Z,0.33
2019-04-21T17:27:08.999Z,1.22
2019-04-21T17:29:36.639Z,0.10
2019-04-21T17:32:06.509Z,2.17
2019-04-21T17:34:34.288Z,0.55
2019-04-21T17:37:01.755Z,1.40
2019-04-21T17:39:31.129Z,5.33
2019-04-21T17:42:11.867Z,0.95
2019-04-21T17:44:27.739Z,1.25
2019-04-21T17:47:01.511Z,0.68
2019-04-21T17:49:25.214Z,2.72
2019-04-21T17:52:00.861Z,1.60
2019-04-21T17:54:35.760Z,0.60
2019-04-21T17:57:23.272Z,2.00
2019-04-21T17:59:58.827Z,0.20
2019-04-21T18:02:21.334Z,0.33
2019-04-21T18:04:42.666Z,0.78
2019-04-21T18:07:27.370Z,0.23
2019-04-21T18:10:00.243Z,0.17
2019-04-21T18:12:25.829Z,0.00
2019-04-21T18:14:38.088Z,1.45
2019-04-21T18:17:06.532Z,1.12
2019-04-21T18:19:36.843Z,1.17
2019-04-21T18:22:07.053Z,0.53
2019-04-21T18:24:48.002Z,0.33
2019-04-21T18:27:09.206Z,0.28
2019-04-21T18:29:36.701Z,0.15
2019-04-21T18:32:04.190Z,0.20
2019-04-21T18:34:34.258Z,0.65
2019-04-21T18:37:32.661Z,0.08
2019-04-21T18:40:02.444Z,0.00
2019-04-21T18:42:45.487Z,0.00
2019-04-21T18:45:44.335Z,0.17
2019-04-21T18:48:02.699Z,0.23
2019-04-21T18:50:21.970Z,1.15
2019-04-21T18:53:04.816Z,0.37
2019-04-21T18:55:30.055Z,0.15
2019-04-21T18:57:51.601Z,0.45
2019-04-21T19:00:26.242Z,0.72
2019-04-21T19:02:52.918Z,0.35
2019-04-21T19:05:21.173Z,0.37
2019-04-21T19:08:04.457Z,0.00
2019-04-21T19:10:35.478Z,0.42
2019-04-21T19:13:29.043Z,0.00
2019-04-21T19:15:28.187Z,1.00
2019-04-21T19:18:34.054Z,0.37
2019-04-21T19:20:29.500Z,0.00
2019-04-21T19:22:58.744Z,0.17
2019-04-21T19:25:25.654Z,0.47
2019-04-21T19:27:55.377Z,0.00
2019-04-21T19:30:36.419Z,0.60
2019-04-21T19:32:58.406Z,0.10
2019-04-21T19:35:09.739Z,0.40
2019-04-21T19:37:43.836Z,0.45
2019-04-21T19:40:22.138Z,0.00
2019-04-21T19:42:47.980Z,0.00
2019-04-21T19:45:22.446Z,0.57
2019-04-21T19:47:53.267Z,1.17
2019-04-21T19:50:28.680Z,0.40
2019-04-21T19:52:46.566Z,0.00
2019-04-21T19:55:06.672Z,0.15
2019-04-21T19:57:34.754Z,0.00
2019-04-21T20:00:06.163Z,0.42
2019-04-21T20:02:34.381Z,0.20
2019-04-21T20:05:07.927Z,0.20
2019-04-21T20:07:48.060Z,0.00
2019-04-21T20:10:26.906Z,0.40
2019-04-21T20:12:56.650Z,0.00
2019-04-21T20:15:31.788Z,0.00
2019-04-21T20:17:50.176Z,0.05
2019-04-21T20:20:06.829Z,0.95
2019-04-21T20:22:40.353Z,0.60
2019-04-21T20:25:11.941Z,0.65
2019-04-21T20:27:45.508Z,0.00
2019-04-21T20:30:26.235Z,0.55
2019-04-21T20:32:56.498Z,0.78
2019-04-21T20:35:34.716Z,0.00
2019-04-21T20:40:21.820Z,0.20
2019-04-21T20:42:46.568Z,1.03
2019-04-21T20:45:40.643Z,0.05
2019-04-21T20:47:42.403Z,0.20
2019-04-21T20:50:22.172Z,0.00
2019-04-21T20:52:56.542Z,0.20
2019-04-21T20:55:17.906Z,0.00
2019-04-21T20:57:46.490Z,0.15
2019-04-21T21:00:25.722Z,0.50
2019-04-21T21:02:53.499Z,0.10
2019-04-21T21:05:23.342Z,0.00
2019-04-21T21:07:55.917Z,0.53
2019-04-21T21:10:20.529Z,0.00
2019-04-21T21:12:57.653Z,0.00
2019-04-21T21:15:19.726Z,0.80
2019-04-21T21:18:01.564Z,0.62
2019-04-21T21:20:24.882Z,0.00
2019-04-21T21:22:55.353Z,0.23
2019-04-21T21:25:25.856Z,0.62
2019-04-21T21:27:47.149Z,0.00
2019-04-21T21:30:16.125Z,1.40
2019-04-21T21:32:52.420Z,0.33
2019-04-21T21:35:17.817Z,0.57
2019-04-21T21:37:52.695Z,0.65
2019-04-21T21:40:25.855Z,0.25
2019-04-21T21:42:35.392Z,0.00
2019-04-21T21:45:05.720Z,0.15
2019-04-21T21:47:49.896Z,1.05
2019-04-21T21:50:07.666Z,1.17
2019-04-21T21:52:42.370Z,0.00
2019-04-21T21:54:55.890Z,1.10
2019-04-21T21:57:23.215Z,0.20
2019-04-21T21:59:52.932Z,1.90
2019-04-21T22:02:29.419Z,3.47
2019-04-21T22:04:58.294Z,0.72
2019-04-21T22:07:22.539Z,0.37
2019-04-21T22:09:47.999Z,0.42
2019-04-21T22:12:16.066Z,0.25
2019-04-21T22:14:48.405Z,1.25
2019-04-21T22:17:28.979Z,1.77
2019-04-21T22:20:03.294Z,1.12
2019-04-21T22:22:23.161Z,3.37
2019-04-21T22:24:50.757Z,2.35
2019-04-21T22:27:09.451Z,2.25
2019-04-21T22:29:45.612Z,3.05
2019-04-21T22:32:13.449Z,1.15
2019-04-21T22:34:46.767Z,0.50
2019-04-21T22:37:26.216Z,1.52
2019-04-21T22:39:56.910Z,0.20
2019-04-21T22:42:15.446Z,0.00
2019-04-21T22:44:36.581Z,0.00
2019-04-21T22:47:12.231Z,0.20
2019-04-21T22:49:34.885Z,0.45
2019-04-21T22:52:08.891Z,0.00
2019-04-21T22:54:37.352Z,0.00
2019-04-21T22:57:11.773Z,0.00
2019-04-21T22:59:32.428Z,0.00
2019-04-21T23:02:01.383Z,0.10
2019-04-21T23:04:36.820Z,0.05
2019-04-21T23:07:04.131Z,0.00
2019-04-21T23:09:28.779Z,0.05
2019-04-21T23:11:57.698Z,0.23
2019-04-21T23:14:25.853Z,0.00
2019-04-21T23:16:54.702Z,0.00
2019-04-21T23:19:36.339Z,0.28
2019-04-21T23:22:09.470Z,0.80
2019-04-21T23:24:41.767Z,0.00
2019-04-21T23:27:00.025Z,0.70
2019-04-21T23:29:47.517Z,0.00
2019-04-21T23:32:02.991Z,0.00
2019-04-21T23:34:25.179Z,0.00
2019-04-21T23:36:54.786Z,0.00
2019-04-21T23:39:23.697Z,0.00
2019-04-21T23:41:51.189Z,0.10
2019-04-21T23:44:17.149Z,0.00
2019-04-21T23:46:44.407Z,0.47
2019-04-21T23:49:27.173Z,0.00
2019-04-21T23:51:47.716Z,0.00
2019-04-21T23:54:11.252Z,0.30
2019-04-21T23:56:42.562Z,0.00
2019-04-21T23:59:10.827Z,0.65
